Maysville, Georgia
Current Conditions -  °F | °C
As of 10:55 AM on Thursday 27 Nov 2014 (Local Time) from K19A Reporting Station
Broken Clouds Broken Clouds  
Wind Chill: 41°   Ceiling: 5000
Heat Index: 46°   Visibility: 10mi
Dew Point: 32°   Wind: 10mph
Humidity: 57%   Direction: 300°WNW
Pressure: 30.22"   Gusts: NA
Location:  34.25°N, 83.56°W
Report Text: K19A 271555Z AUTO 30009KT 10SM SCT036 SCT043 BKN050 08/00 A3022 RMK AO2
Loading
Personal Weather Stations






























Interactive Weather Map New forecast layout! Learn more

10-Day Weather Forecast

Advertisements
Track Severe Weather on mobile